sensor_id;sensor_type;location;lat;lon;timestamp;P1;durP1;ratioP1;P2;durP2;ratioP2
18501;SDS011;68437;52.236;5.710;2024-03-25T00:02:03;33.72;;;5.78;;
18501;SDS011;68437;52.236;5.710;2024-03-25T00:04:31;49.03;;;6.17;;
18501;SDS011;68437;52.236;5.710;2024-03-25T00:06:57;35.30;;;5.80;;
18501;SDS011;68437;52.236;5.710;2024-03-25T00:09:23;47.07;;;6.33;;
18501;SDS011;68437;52.236;5.710;2024-03-25T00:11:50;44.92;;;6.70;;
18501;SDS011;68437;52.236;5.710;2024-03-25T00:14:19;43.67;;;6.18;;
18501;SDS011;68437;52.236;5.710;2024-03-25T00:16:46;38.77;;;6.13;;
18501;SDS011;68437;52.236;5.710;2024-03-25T00:19:12;54.08;;;6.55;;
18501;SDS011;68437;52.236;5.710;2024-03-25T00:21:40;33.42;;;5.78;;
18501;SDS011;68437;52.236;5.710;2024-03-25T00:24:07;28.42;;;5.93;;
18501;SDS011;68437;52.236;5.710;2024-03-25T00:26:34;36.90;;;6.20;;
18501;SDS011;68437;52.236;5.710;2024-03-25T00:29:00;38.10;;;5.95;;
18501;SDS011;68437;52.236;5.710;2024-03-25T00:31:27;29.67;;;5.73;;
18501;SDS011;68437;52.236;5.710;2024-03-25T00:33:52;34.10;;;5.70;;
18501;SDS011;68437;52.236;5.710;2024-03-25T00:36:19;32.13;;;5.88;;
18501;SDS011;68437;52.236;5.710;2024-03-25T00:38:46;40.03;;;5.90;;
18501;SDS011;68437;52.236;5.710;2024-03-25T00:41:14;34.53;;;6.40;;
18501;SDS011;68437;52.236;5.710;2024-03-25T00:43:40;41.50;;;6.27;;
18501;SDS011;68437;52.236;5.710;2024-03-25T00:46:06;30.90;;;5.30;;
18501;SDS011;68437;52.236;5.710;2024-03-25T00:48:32;42.23;;;6.03;;
18501;SDS011;68437;52.236;5.710;2024-03-25T00:50:59;34.33;;;5.43;;
18501;SDS011;68437;52.236;5.710;2024-03-25T00:53:25;45.17;;;6.13;;
18501;SDS011;68437;52.236;5.710;2024-03-25T00:55:54;37.58;;;5.70;;
18501;SDS011;68437;52.236;5.710;2024-03-25T00:58:20;46.30;;;6.73;;
18501;SDS011;68437;52.236;5.710;2024-03-25T01:00:46;31.60;;;5.80;;
18501;SDS011;68437;52.236;5.710;2024-03-25T01:03:12;34.60;;;6.17;;
18501;SDS011;68437;52.236;5.710;2024-03-25T01:05:39;29.37;;;4.97;;
18501;SDS011;68437;52.236;5.710;2024-03-25T01:08:05;36.63;;;5.90;;
18501;SDS011;68437;52.236;5.710;2024-03-25T01:10:36;36.58;;;5.82;;
18501;SDS011;68437;52.236;5.710;2024-03-25T01:13:03;33.93;;;5.57;;
18501;SDS011;68437;52.236;5.710;2024-03-25T01:15:30;31.27;;;5.73;;
18501;SDS011;68437;52.236;5.710;2024-03-25T01:17:56;37.83;;;5.53;;
18501;SDS011;68437;52.236;5.710;2024-03-25T01:20:23;34.13;;;5.70;;
18501;SDS011;68437;52.236;5.710;2024-03-25T01:22:50;27.43;;;5.70;;
18501;SDS011;68437;52.236;5.710;2024-03-25T01:25:16;29.10;;;5.20;;
18501;SDS011;68437;52.236;5.710;2024-03-25T01:27:42;33.97;;;5.40;;
18501;SDS011;68437;52.236;5.710;2024-03-25T01:30:10;30.93;;;5.53;;
18501;SDS011;68437;52.236;5.710;2024-03-25T01:32:38;32.07;;;5.37;;
18501;SDS011;68437;52.236;5.710;2024-03-25T01:35:04;33.70;;;6.40;;
18501;SDS011;68437;52.236;5.710;2024-03-25T01:37:31;41.37;;;5.93;;
18501;SDS011;68437;52.236;5.710;2024-03-25T01:39:57;27.80;;;5.33;;
18501;SDS011;68437;52.236;5.710;2024-03-25T01:42:24;22.98;;;5.22;;
18501;SDS011;68437;52.236;5.710;2024-03-25T01:44:50;24.23;;;5.43;;
18501;SDS011;68437;52.236;5.710;2024-03-25T01:47:18;32.47;;;5.53;;
18501;SDS011;68437;52.236;5.710;2024-03-25T01:49:44;32.53;;;5.57;;
18501;SDS011;68437;52.236;5.710;2024-03-25T01:52:11;36.13;;;5.60;;
18501;SDS011;68437;52.236;5.710;2024-03-25T01:54:37;39.00;;;5.77;;
18501;SDS011;68437;52.236;5.710;2024-03-25T01:57:04;36.00;;;5.63;;
18501;SDS011;68437;52.236;5.710;2024-03-25T01:59:30;33.05;;;5.78;;
18501;SDS011;68437;52.236;5.710;2024-03-25T02:01:57;38.30;;;5.57;;
18501;SDS011;68437;52.236;5.710;2024-03-25T02:04:26;47.97;;;5.38;;
18501;SDS011;68437;52.236;5.710;2024-03-25T02:06:53;44.40;;;6.03;;
18501;SDS011;68437;52.236;5.710;2024-03-25T02:09:23;31.35;;;5.80;;
18501;SDS011;68437;52.236;5.710;2024-03-25T02:11:51;35.27;;;5.63;;
18501;SDS011;68437;52.236;5.710;2024-03-25T02:14:17;39.45;;;5.57;;
18501;SDS011;68437;52.236;5.710;2024-03-25T02:16:44;39.43;;;5.93;;
18501;SDS011;68437;52.236;5.710;2024-03-25T02:19:10;41.13;;;5.40;;
18501;SDS011;68437;52.236;5.710;2024-03-25T02:21:40;41.42;;;5.63;;
18501;SDS011;68437;52.236;5.710;2024-03-25T02:24:08;47.40;;;5.90;;
18501;SDS011;68437;52.236;5.710;2024-03-25T02:26:38;34.35;;;4.80;;
18501;SDS011;68437;52.236;5.710;2024-03-25T02:29:04;46.37;;;5.80;;
18501;SDS011;68437;52.236;5.710;2024-03-25T02:31:31;30.47;;;5.53;;
18501;SDS011;68437;52.236;5.710;2024-03-25T02:33:57;33.60;;;5.60;;
18501;SDS011;68437;52.236;5.710;2024-03-25T02:36:24;37.33;;;5.87;;
18501;SDS011;68437;52.236;5.710;2024-03-25T02:38:50;37.20;;;5.70;;
18501;SDS011;68437;52.236;5.710;2024-03-25T02:41:17;40.83;;;5.60;;
18501;SDS011;68437;52.236;5.710;2024-03-25T02:43:44;33.70;;;5.47;;
18501;SDS011;68437;52.236;5.710;2024-03-25T02:46:11;44.35;;;5.65;;
18501;SDS011;68437;52.236;5.710;2024-03-25T02:48:37;46.05;;;5.40;;
18501;SDS011;68437;52.236;5.710;2024-03-25T02:51:04;36.30;;;5.67;;
18501;SDS011;68437;52.236;5.710;2024-03-25T02:53:30;38.83;;;5.20;;
18501;SDS011;68437;52.236;5.710;2024-03-25T02:55:57;53.10;;;6.20;;
18501;SDS011;68437;52.236;5.710;2024-03-25T02:58:23;42.97;;;5.47;;
18501;SDS011;68437;52.236;5.710;2024-03-25T03:00:51;49.20;;;5.27;;
18501;SDS011;68437;52.236;5.710;2024-03-25T03:03:17;45.33;;;5.45;;
18501;SDS011;68437;52.236;5.710;2024-03-25T03:05:44;47.85;;;5.50;;
18501;SDS011;68437;52.236;5.710;2024-03-25T03:08:10;33.07;;;5.77;;
18501;SDS011;68437;52.236;5.710;2024-03-25T03:10:36;44.00;;;5.43;;
18501;SDS011;68437;52.236;5.710;2024-03-25T03:13:02;36.23;;;4.47;;
18501;SDS011;68437;52.236;5.710;2024-03-25T03:15:29;41.72;;;5.28;;
18501;SDS011;68437;52.236;5.710;2024-03-25T03:17:56;40.65;;;4.80;;
18501;SDS011;68437;52.236;5.710;2024-03-25T03:20:23;34.30;;;5.40;;
18501;SDS011;68437;52.236;5.710;2024-03-25T03:22:49;30.40;;;4.87;;
18501;SDS011;68437;52.236;5.710;2024-03-25T03:25:16;36.08;;;4.90;;
18501;SDS011;68437;52.236;5.710;2024-03-25T03:27:42;41.50;;;4.78;;
18501;SDS011;68437;52.236;5.710;2024-03-25T03:30:09;38.97;;;4.72;;
18501;SDS011;68437;52.236;5.710;2024-03-25T03:32:35;27.13;;;4.50;;
18501;SDS011;68437;52.236;5.710;2024-03-25T03:35:04;32.00;;;4.67;;
18501;SDS011;68437;52.236;5.710;2024-03-25T03:37:30;28.67;;;4.40;;
18501;SDS011;68437;52.236;5.710;2024-03-25T03:39:57;31.98;;;5.10;;
18501;SDS011;68437;52.236;5.710;2024-03-25T03:42:23;35.83;;;5.27;;
18501;SDS011;68437;52.236;5.710;2024-03-25T03:44:49;35.58;;;4.97;;
18501;SDS011;68437;52.236;5.710;2024-03-25T03:47:15;25.97;;;4.90;;
18501;SDS011;68437;52.236;5.710;2024-03-25T03:49:42;29.07;;;4.77;;
18501;SDS011;68437;52.236;5.710;2024-03-25T03:52:09;31.42;;;4.82;;
18501;SDS011;68437;52.236;5.710;2024-03-25T03:54:36;19.87;;;4.13;;
18501;SDS011;68437;52.236;5.710;2024-03-25T03:57:02;27.40;;;4.10;;
18501;SDS011;68437;52.236;5.710;2024-03-25T03:59:29;24.57;;;3.97;;
18501;SDS011;68437;52.236;5.710;2024-03-25T04:01:55;23.57;;;4.00;;
18501;SDS011;68437;52.236;5.710;2024-03-25T04:04:21;23.97;;;3.90;;
18501;SDS011;68437;52.236;5.710;2024-03-25T04:06:48;27.00;;;3.93;;
18501;SDS011;68437;52.236;5.710;2024-03-25T04:09:16;19.23;;;3.93;;
18501;SDS011;68437;52.236;5.710;2024-03-25T04:11:43;31.90;;;4.33;;
18501;SDS011;68437;52.236;5.710;2024-03-25T04:14:10;37.45;;;4.43;;
18501;SDS011;68437;52.236;5.710;2024-03-25T04:16:36;22.13;;;4.07;;
18501;SDS011;68437;52.236;5.710;2024-03-25T04:19:03;17.40;;;3.38;;
18501;SDS011;68437;52.236;5.710;2024-03-25T04:21:29;18.50;;;3.78;;
18501;SDS011;68437;52.236;5.710;2024-03-25T04:23:55;34.40;;;4.13;;
18501;SDS011;68437;52.236;5.710;2024-03-25T04:26:23;22.17;;;4.10;;
18501;SDS011;68437;52.236;5.710;2024-03-25T04:28:49;23.20;;;4.43;;
18501;SDS011;68437;52.236;5.710;2024-03-25T04:31:15;25.38;;;3.85;;
18501;SDS011;68437;52.236;5.710;2024-03-25T04:33:42;19.33;;;3.93;;
18501;SDS011;68437;52.236;5.710;2024-03-25T04:36:08;21.73;;;4.33;;
18501;SDS011;68437;52.236;5.710;2024-03-25T04:38:35;24.97;;;4.50;;
18501;SDS011;68437;52.236;5.710;2024-03-25T04:41:01;18.93;;;4.10;;
18501;SDS011;68437;52.236;5.710;2024-03-25T04:43:28;19.83;;;4.15;;
18501;SDS011;68437;52.236;5.710;2024-03-25T04:45:54;19.70;;;3.93;;
18501;SDS011;68437;52.236;5.710;2024-03-25T04:48:20;16.67;;;3.73;;
18501;SDS011;68437;52.236;5.710;2024-03-25T04:50:45;27.45;;;3.65;;
18501;SDS011;68437;52.236;5.710;2024-03-25T04:53:11;26.88;;;3.70;;
18501;SDS011;68437;52.236;5.710;2024-03-25T04:55:37;21.67;;;4.67;;
18501;SDS011;68437;52.236;5.710;2024-03-25T04:58:03;15.47;;;4.03;;
18501;SDS011;68437;52.236;5.710;2024-03-25T05:00:30;23.37;;;3.80;;
18501;SDS011;68437;52.236;5.710;2024-03-25T05:02:56;22.83;;;3.83;;
18501;SDS011;68437;52.236;5.710;2024-03-25T05:05:22;24.93;;;4.40;;
18501;SDS011;68437;52.236;5.710;2024-03-25T05:07:48;22.10;;;4.10;;
18501;SDS011;68437;52.236;5.710;2024-03-25T05:10:14;24.47;;;4.17;;
18501;SDS011;68437;52.236;5.710;2024-03-25T05:12:40;20.20;;;3.93;;
18501;SDS011;68437;52.236;5.710;2024-03-25T05:15:06;17.03;;;3.70;;
18501;SDS011;68437;52.236;5.710;2024-03-25T05:17:34;22.30;;;4.33;;
18501;SDS011;68437;52.236;5.710;2024-03-25T05:19:59;15.03;;;3.97;;
18501;SDS011;68437;52.236;5.710;2024-03-25T05:22:25;14.07;;;4.07;;
18501;SDS011;68437;52.236;5.710;2024-03-25T05:24:51;21.00;;;4.03;;
18501;SDS011;68437;52.236;5.710;2024-03-25T05:27:17;18.27;;;3.73;;
18501;SDS011;68437;52.236;5.710;2024-03-25T05:29:43;17.30;;;4.10;;
18501;SDS011;68437;52.236;5.710;2024-03-25T05:32:09;23.73;;;3.83;;
18501;SDS011;68437;52.236;5.710;2024-03-25T05:34:36;23.10;;;3.60;;
18501;SDS011;68437;52.236;5.710;2024-03-25T05:37:05;18.03;;;3.90;;
18501;SDS011;68437;52.236;5.710;2024-03-25T05:39:31;20.73;;;4.23;;
18501;SDS011;68437;52.236;5.710;2024-03-25T05:41:57;24.63;;;4.30;;
18501;SDS011;68437;52.236;5.710;2024-03-25T05:44:23;17.63;;;4.10;;
18501;SDS011;68437;52.236;5.710;2024-03-25T05:46:48;21.37;;;4.43;;
18501;SDS011;68437;52.236;5.710;2024-03-25T05:49:14;27.43;;;5.07;;
18501;SDS011;68437;52.236;5.710;2024-03-25T05:51:42;17.43;;;4.50;;
18501;SDS011;68437;52.236;5.710;2024-03-25T05:54:07;25.27;;;5.50;;
18501;SDS011;68437;52.236;5.710;2024-03-25T05:56:33;18.50;;;4.77;;
18501;SDS011;68437;52.236;5.710;2024-03-25T05:58:59;28.60;;;6.07;;
18501;SDS011;68437;52.236;5.710;2024-03-25T06:01:25;27.43;;;5.47;;
18501;SDS011;68437;52.236;5.710;2024-03-25T06:03:54;27.00;;;5.30;;
18501;SDS011;68437;52.236;5.710;2024-03-25T06:06:20;28.60;;;5.80;;
18501;SDS011;68437;52.236;5.710;2024-03-25T06:08:47;37.80;;;6.17;;
18501;SDS011;68437;52.236;5.710;2024-03-25T06:11:13;34.60;;;7.03;;
18501;SDS011;68437;52.236;5.710;2024-03-25T06:13:39;29.30;;;6.10;;
18501;SDS011;68437;52.236;5.710;2024-03-25T06:16:05;32.73;;;7.17;;
18501;SDS011;68437;52.236;5.710;2024-03-25T06:18:31;29.10;;;6.90;;
18501;SDS011;68437;52.236;5.710;2024-03-25T06:20:57;33.33;;;7.43;;
18501;SDS011;68437;52.236;5.710;2024-03-25T06:23:23;45.10;;;7.97;;
18501;SDS011;68437;52.236;5.710;2024-03-25T06:25:51;48.47;;;8.33;;
18501;SDS011;68437;52.236;5.710;2024-03-25T06:28:18;45.40;;;9.30;;
18501;SDS011;68437;52.236;5.710;2024-03-25T06:30:44;54.03;;;8.57;;
18501;SDS011;68437;52.236;5.710;2024-03-25T06:33:29;45.47;;;8.53;;
18501;SDS011;68437;52.236;5.710;2024-03-25T06:36:13;53.63;;;9.43;;
18501;SDS011;68437;52.236;5.710;2024-03-25T06:38:39;51.55;;;10.05;;
18501;SDS011;68437;52.236;5.710;2024-03-25T06:41:06;51.57;;;9.77;;
18501;SDS011;68437;52.236;5.710;2024-03-25T06:43:32;37.03;;;8.83;;
18501;SDS011;68437;52.236;5.710;2024-03-25T06:45:58;46.47;;;10.10;;
18501;SDS011;68437;52.236;5.710;2024-03-25T06:48:24;57.17;;;10.52;;
18501;SDS011;68437;52.236;5.710;2024-03-25T06:50:53;66.50;;;10.70;;
18501;SDS011;68437;52.236;5.710;2024-03-25T06:53:20;47.53;;;10.07;;
18501;SDS011;68437;52.236;5.710;2024-03-25T06:55:52;48.72;;;10.63;;
18501;SDS011;68437;52.236;5.710;2024-03-25T06:58:21;57.90;;;11.10;;
18501;SDS011;68437;52.236;5.710;2024-03-25T07:00:48;51.93;;;10.77;;
18501;SDS011;68437;52.236;5.710;2024-03-25T07:03:14;63.50;;;11.37;;
18501;SDS011;68437;52.236;5.710;2024-03-25T07:05:40;55.00;;;11.07;;
18501;SDS011;68437;52.236;5.710;2024-03-25T07:08:06;76.47;;;12.27;;
18501;SDS011;68437;52.236;5.710;2024-03-25T07:10:32;50.30;;;12.48;;
18501;SDS011;68437;52.236;5.710;2024-03-25T07:12:58;61.53;;;12.20;;
18501;SDS011;68437;52.236;5.710;2024-03-25T07:15:25;48.72;;;11.85;;
18501;SDS011;68437;52.236;5.710;2024-03-25T07:17:51;52.13;;;13.30;;
18501;SDS011;68437;52.236;5.710;2024-03-25T07:20:17;67.45;;;14.40;;
18501;SDS011;68437;52.236;5.710;2024-03-25T07:22:43;57.58;;;14.10;;
18501;SDS011;68437;52.236;5.710;2024-03-25T07:25:09;95.93;;;28.55;;
18501;SDS011;68437;52.236;5.710;2024-03-25T07:27:34;70.27;;;16.77;;
18501;SDS011;68437;52.236;5.710;2024-03-25T07:30:04;50.65;;;13.63;;
18501;SDS011;68437;52.236;5.710;2024-03-25T07:32:32;78.22;;;17.95;;
18501;SDS011;68437;52.236;5.710;2024-03-25T07:34:58;71.70;;;26.70;;
18501;SDS011;68437;52.236;5.710;2024-03-25T07:37:24;63.28;;;19.15;;
18501;SDS011;68437;52.236;5.710;2024-03-25T07:39:50;65.57;;;21.30;;
18501;SDS011;68437;52.236;5.710;2024-03-25T07:42:16;79.78;;;27.05;;
18501;SDS011;68437;52.236;5.710;2024-03-25T07:44:42;78.55;;;19.05;;
18501;SDS011;68437;52.236;5.710;2024-03-25T07:47:08;60.88;;;20.00;;
18501;SDS011;68437;52.236;5.710;2024-03-25T07:49:35;61.13;;;19.55;;
18501;SDS011;68437;52.236;5.710;2024-03-25T07:52:01;57.50;;;18.02;;
18501;SDS011;68437;52.236;5.710;2024-03-25T07:54:27;65.78;;;19.52;;
18501;SDS011;68437;52.236;5.710;2024-03-25T07:56:53;62.22;;;15.93;;
18501;SDS011;68437;52.236;5.710;2024-03-25T07:59:19;55.97;;;15.70;;
18501;SDS011;68437;52.236;5.710;2024-03-25T08:01:45;52.83;;;15.85;;
18501;SDS011;68437;52.236;5.710;2024-03-25T08:04:11;61.72;;;16.52;;
18501;SDS011;68437;52.236;5.710;2024-03-25T08:06:38;49.80;;;14.45;;
18501;SDS011;68437;52.236;5.710;2024-03-25T08:09:04;48.30;;;14.77;;
18501;SDS011;68437;52.236;5.710;2024-03-25T08:11:30;45.25;;;13.63;;
18501;SDS011;68437;52.236;5.710;2024-03-25T08:13:56;57.13;;;13.43;;
18501;SDS011;68437;52.236;5.710;2024-03-25T08:16:22;53.72;;;12.55;;
18501;SDS011;68437;52.236;5.710;2024-03-25T08:18:48;51.10;;;11.85;;
18501;SDS011;68437;52.236;5.710;2024-03-25T08:21:14;55.45;;;10.70;;
18501;SDS011;68437;52.236;5.710;2024-03-25T08:23:41;41.80;;;9.90;;
18501;SDS011;68437;52.236;5.710;2024-03-25T08:26:09;41.88;;;10.82;;
18501;SDS011;68437;52.236;5.710;2024-03-25T08:28:35;34.92;;;10.40;;
18501;SDS011;68437;52.236;5.710;2024-03-25T08:31:01;43.78;;;12.30;;
18501;SDS011;68437;52.236;5.710;2024-03-25T08:33:27;46.00;;;13.43;;
18501;SDS011;68437;52.236;5.710;2024-03-25T08:35:53;35.55;;;13.70;;
18501;SDS011;68437;52.236;5.710;2024-03-25T08:38:19;32.15;;;9.88;;
18501;SDS011;68437;52.236;5.710;2024-03-25T08:40:46;27.40;;;7.93;;
18501;SDS011;68437;52.236;5.710;2024-03-25T08:43:12;28.70;;;7.10;;
18501;SDS011;68437;52.236;5.710;2024-03-25T08:45:38;37.90;;;7.80;;
18501;SDS011;68437;52.236;5.710;2024-03-25T08:48:04;21.58;;;6.45;;
18501;SDS011;68437;52.236;5.710;2024-03-25T08:50:31;34.40;;;9.30;;
18501;SDS011;68437;52.236;5.710;2024-03-25T08:52:57;28.38;;;6.57;;
18501;SDS011;68437;52.236;5.710;2024-03-25T08:55:22;20.77;;;5.03;;
18501;SDS011;68437;52.236;5.710;2024-03-25T08:57:50;19.10;;;6.10;;
18501;SDS011;68437;52.236;5.710;2024-03-25T09:00:16;20.38;;;6.28;;
18501;SDS011;68437;52.236;5.710;2024-03-25T09:02:42;32.70;;;5.88;;
18501;SDS011;68437;52.236;5.710;2024-03-25T09:05:08;21.10;;;4.45;;
18501;SDS011;68437;52.236;5.710;2024-03-25T09:07:34;20.65;;;4.80;;
18501;SDS011;68437;52.236;5.710;2024-03-25T09:10:01;26.38;;;5.45;;
18501;SDS011;68437;52.236;5.710;2024-03-25T09:12:45;22.13;;;4.55;;
18501;SDS011;68437;52.236;5.710;2024-03-25T09:15:12;23.42;;;4.47;;
18501;SDS011;68437;52.236;5.710;2024-03-25T09:17:38;18.48;;;4.10;;
18501;SDS011;68437;52.236;5.710;2024-03-25T09:20:05;19.77;;;4.03;;
18501;SDS011;68437;52.236;5.710;2024-03-25T09:22:32;19.48;;;3.40;;
18501;SDS011;68437;52.236;5.710;2024-03-25T09:24:58;15.77;;;2.72;;
18501;SDS011;68437;52.236;5.710;2024-03-25T09:27:23;23.40;;;3.25;;
18501;SDS011;68437;52.236;5.710;2024-03-25T09:29:49;15.35;;;3.05;;
18501;SDS011;68437;52.236;5.710;2024-03-25T09:32:17;18.75;;;4.10;;
18501;SDS011;68437;52.236;5.710;2024-03-25T09:34:42;16.63;;;4.45;;
18501;SDS011;68437;52.236;5.710;2024-03-25T09:37:08;18.63;;;4.35;;
18501;SDS011;68437;52.236;5.710;2024-03-25T09:39:34;20.00;;;4.30;;
18501;SDS011;68437;52.236;5.710;2024-03-25T09:42:01;18.05;;;4.28;;
18501;SDS011;68437;52.236;5.710;2024-03-25T09:44:32;11.75;;;2.80;;
18501;SDS011;68437;52.236;5.710;2024-03-25T09:46:58;19.58;;;3.05;;
18501;SDS011;68437;52.236;5.710;2024-03-25T09:49:26;16.10;;;2.95;;
18501;SDS011;68437;52.236;5.710;2024-03-25T09:51:54;11.27;;;2.47;;
18501;SDS011;68437;52.236;5.710;2024-03-25T09:54:22;16.05;;;3.35;;
18501;SDS011;68437;52.236;5.710;2024-03-25T09:56:48;13.27;;;2.95;;
18501;SDS011;68437;52.236;5.710;2024-03-25T09:59:18;27.55;;;10.40;;
18501;SDS011;68437;52.236;5.710;2024-03-25T10:01:45;20.77;;;6.72;;
18501;SDS011;68437;52.236;5.710;2024-03-25T10:04:11;19.80;;;7.43;;
18501;SDS011;68437;52.236;5.710;2024-03-25T10:06:38;26.95;;;10.43;;
18501;SDS011;68437;52.236;5.710;2024-03-25T10:09:05;22.65;;;7.25;;
18501;SDS011;68437;52.236;5.710;2024-03-25T10:11:31;18.70;;;7.93;;
18501;SDS011;68437;52.236;5.710;2024-03-25T10:13:57;15.80;;;4.95;;
18501;SDS011;68437;52.236;5.710;2024-03-25T10:16:23;20.00;;;3.78;;
18501;SDS011;68437;52.236;5.710;2024-03-25T10:18:49;19.95;;;4.03;;
18501;SDS011;68437;52.236;5.710;2024-03-25T10:21:15;23.08;;;3.13;;
18501;SDS011;68437;52.236;5.710;2024-03-25T10:23:46;18.45;;;2.95;;
18501;SDS011;68437;52.236;5.710;2024-03-25T10:26:25;17.90;;;2.85;;
18501;SDS011;68437;52.236;5.710;2024-03-25T10:28:58;11.40;;;3.05;;
18501;SDS011;68437;52.236;5.710;2024-03-25T10:31:24;14.93;;;3.55;;
18501;SDS011;68437;52.236;5.710;2024-03-25T10:33:50;16.95;;;3.63;;
18501;SDS011;68437;52.236;5.710;2024-03-25T10:36:17;19.85;;;6.20;;
18501;SDS011;68437;52.236;5.710;2024-03-25T10:38:44;18.40;;;6.40;;
18501;SDS011;68437;52.236;5.710;2024-03-25T10:41:14;15.13;;;3.25;;
18501;SDS011;68437;52.236;5.710;2024-03-25T10:43:42;18.80;;;4.15;;
18501;SDS011;68437;52.236;5.710;2024-03-25T10:46:11;17.13;;;7.75;;
18501;SDS011;68437;52.236;5.710;2024-03-25T10:48:41;14.75;;;3.88;;
18501;SDS011;68437;52.236;5.710;2024-03-25T10:51:13;9.88;;;2.28;;
18501;SDS011;68437;52.236;5.710;2024-03-25T10:53:39;12.30;;;2.60;;
18501;SDS011;68437;52.236;5.710;2024-03-25T10:56:09;13.68;;;2.60;;
18501;SDS011;68437;52.236;5.710;2024-03-25T10:58:37;20.70;;;5.50;;
18501;SDS011;68437;52.236;5.710;2024-03-25T11:01:04;15.27;;;3.08;;
18501;SDS011;68437;52.236;5.710;2024-03-25T11:03:31;11.90;;;3.05;;
18501;SDS011;68437;52.236;5.710;2024-03-25T11:05:57;11.38;;;2.97;;
18501;SDS011;68437;52.236;5.710;2024-03-25T11:08:29;11.43;;;2.80;;
18501;SDS011;68437;52.236;5.710;2024-03-25T11:10:56;14.43;;;5.20;;
18501;SDS011;68437;52.236;5.710;2024-03-25T11:13:26;12.63;;;3.47;;
18501;SDS011;68437;52.236;5.710;2024-03-25T11:15:52;10.55;;;3.00;;
18501;SDS011;68437;52.236;5.710;2024-03-25T11:18:22;18.05;;;4.40;;
18501;SDS011;68437;52.236;5.710;2024-03-25T11:20:58;11.68;;;3.20;;
18501;SDS011;68437;52.236;5.710;2024-03-25T11:23:25;12.52;;;3.72;;
18501;SDS011;68437;52.236;5.710;2024-03-25T11:25:54;13.55;;;3.88;;
18501;SDS011;68437;52.236;5.710;2024-03-25T11:28:27;12.70;;;4.22;;
18501;SDS011;68437;52.236;5.710;2024-03-25T11:30:54;14.02;;;3.38;;
18501;SDS011;68437;52.236;5.710;2024-03-25T11:33:20;12.85;;;3.45;;
18501;SDS011;68437;52.236;5.710;2024-03-25T11:35:46;13.05;;;3.10;;
18501;SDS011;68437;52.236;5.710;2024-03-25T11:38:12;9.77;;;3.00;;
18501;SDS011;68437;52.236;5.710;2024-03-25T11:40:38;11.25;;;3.20;;
18501;SDS011;68437;52.236;5.710;2024-03-25T11:43:06;7.95;;;2.90;;
18501;SDS011;68437;52.236;5.710;2024-03-25T11:45:34;13.70;;;4.28;;
18501;SDS011;68437;52.236;5.710;2024-03-25T11:48:00;13.00;;;4.22;;
18501;SDS011;68437;52.236;5.710;2024-03-25T11:50:25;13.93;;;3.92;;
18501;SDS011;68437;52.236;5.710;2024-03-25T11:52:51;12.13;;;4.00;;
18501;SDS011;68437;52.236;5.710;2024-03-25T11:55:17;11.40;;;3.50;;
18501;SDS011;68437;52.236;5.710;2024-03-25T11:57:43;10.00;;;3.90;;
18501;SDS011;68437;52.236;5.710;2024-03-25T12:00:10;16.17;;;3.95;;
18501;SDS011;68437;52.236;5.710;2024-03-25T12:02:38;13.30;;;3.67;;
18501;SDS011;68437;52.236;5.710;2024-03-25T12:05:05;14.57;;;4.68;;
18501;SDS011;68437;52.236;5.710;2024-03-25T12:07:32;13.32;;;4.15;;
18501;SDS011;68437;52.236;5.710;2024-03-25T12:09:58;15.07;;;3.80;;
18501;SDS011;68437;52.236;5.710;2024-03-25T12:12:42;17.35;;;4.20;;
18501;SDS011;68437;52.236;5.710;2024-03-25T12:15:08;18.75;;;4.20;;
18501;SDS011;68437;52.236;5.710;2024-03-25T12:17:35;13.50;;;3.90;;
18501;SDS011;68437;52.236;5.710;2024-03-25T12:20:06;13.57;;;3.75;;
18501;SDS011;68437;52.236;5.710;2024-03-25T12:22:34;11.63;;;3.90;;
18501;SDS011;68437;52.236;5.710;2024-03-25T12:25:01;12.40;;;3.58;;
18501;SDS011;68437;52.236;5.710;2024-03-25T12:27:27;9.93;;;3.40;;
18501;SDS011;68437;52.236;5.710;2024-03-25T12:29:57;12.02;;;3.17;;
18501;SDS011;68437;52.236;5.710;2024-03-25T12:32:30;11.65;;;3.17;;
18501;SDS011;68437;52.236;5.710;2024-03-25T12:35:08;10.52;;;2.97;;
18501;SDS011;68437;52.236;5.710;2024-03-25T12:37:36;8.60;;;2.75;;
18501;SDS011;68437;52.236;5.710;2024-03-25T12:40:02;13.15;;;3.17;;
18501;SDS011;68437;52.236;5.710;2024-03-25T12:42:29;10.75;;;3.10;;
18501;SDS011;68437;52.236;5.710;2024-03-25T12:44:55;11.13;;;2.70;;
18501;SDS011;68437;52.236;5.710;2024-03-25T12:47:21;11.45;;;2.88;;
18501;SDS011;68437;52.236;5.710;2024-03-25T12:49:47;14.90;;;3.30;;
18501;SDS011;68437;52.236;5.710;2024-03-25T12:52:15;12.07;;;3.42;;
18501;SDS011;68437;52.236;5.710;2024-03-25T12:54:41;9.95;;;3.17;;
18501;SDS011;68437;52.236;5.710;2024-03-25T12:57:07;14.73;;;3.33;;
18501;SDS011;68437;52.236;5.710;2024-03-25T12:59:32;9.40;;;3.50;;
18501;SDS011;68437;52.236;5.710;2024-03-25T13:01:58;11.05;;;2.90;;
18501;SDS011;68437;52.236;5.710;2024-03-25T13:04:25;10.68;;;2.90;;
18501;SDS011;68437;52.236;5.710;2024-03-25T13:06:51;12.32;;;3.00;;
18501;SDS011;68437;52.236;5.710;2024-03-25T13:09:19;10.50;;;3.10;;
18501;SDS011;68437;52.236;5.710;2024-03-25T13:11:45;11.13;;;2.72;;
18501;SDS011;68437;52.236;5.710;2024-03-25T13:14:16;9.00;;;2.72;;
18501;SDS011;68437;52.236;5.710;2024-03-25T13:16:42;8.73;;;2.90;;
18501;SDS011;68437;52.236;5.710;2024-03-25T13:19:08;12.98;;;3.10;;
18501;SDS011;68437;52.236;5.710;2024-03-25T13:21:34;11.13;;;3.35;;
18501;SDS011;68437;52.236;5.710;2024-03-25T13:24:00;11.45;;;3.25;;
18501;SDS011;68437;52.236;5.710;2024-03-25T13:26:27;9.25;;;3.38;;
18501;SDS011;68437;52.236;5.710;2024-03-25T13:28:53;13.05;;;3.40;;
18501;SDS011;68437;52.236;5.710;2024-03-25T13:31:19;9.20;;;3.35;;
18501;SDS011;68437;52.236;5.710;2024-03-25T13:33:45;11.00;;;3.28;;
18501;SDS011;68437;52.236;5.710;2024-03-25T13:36:11;12.05;;;3.38;;
18501;SDS011;68437;52.236;5.710;2024-03-25T13:38:37;16.00;;;3.58;;
18501;SDS011;68437;52.236;5.710;2024-03-25T13:41:03;11.93;;;3.58;;
18501;SDS011;68437;52.236;5.710;2024-03-25T13:43:30;10.98;;;3.40;;
18501;SDS011;68437;52.236;5.710;2024-03-25T13:45:56;11.80;;;3.65;;
18501;SDS011;68437;52.236;5.710;2024-03-25T13:48:22;10.20;;;3.25;;
18501;SDS011;68437;52.236;5.710;2024-03-25T13:50:48;10.57;;;3.13;;
18501;SDS011;68437;52.236;5.710;2024-03-25T13:53:14;9.15;;;3.05;;
18501;SDS011;68437;52.236;5.710;2024-03-25T13:55:40;11.32;;;3.03;;
18501;SDS011;68437;52.236;5.710;2024-03-25T13:58:06;10.30;;;2.97;;
18501;SDS011;68437;52.236;5.710;2024-03-25T14:00:34;8.63;;;3.08;;
18501;SDS011;68437;52.236;5.710;2024-03-25T14:03:00;8.20;;;2.83;;
18501;SDS011;68437;52.236;5.710;2024-03-25T14:05:26;9.07;;;3.22;;
18501;SDS011;68437;52.236;5.710;2024-03-25T14:07:51;10.13;;;3.17;;
18501;SDS011;68437;52.236;5.710;2024-03-25T14:10:17;9.32;;;2.90;;
18501;SDS011;68437;52.236;5.710;2024-03-25T14:12:43;10.52;;;3.25;;
18501;SDS011;68437;52.236;5.710;2024-03-25T14:15:09;10.60;;;3.10;;
18501;SDS011;68437;52.236;5.710;2024-03-25T14:17:37;13.48;;;3.47;;
18501;SDS011;68437;52.236;5.710;2024-03-25T14:20:03;10.77;;;2.90;;
18501;SDS011;68437;52.236;5.710;2024-03-25T14:22:29;6.25;;;2.70;;
18501;SDS011;68437;52.236;5.710;2024-03-25T14:24:55;9.20;;;3.25;;
18501;SDS011;68437;52.236;5.710;2024-03-25T14:27:21;10.48;;;4.30;;
18501;SDS011;68437;52.236;5.710;2024-03-25T14:29:47;10.02;;;4.00;;
18501;SDS011;68437;52.236;5.710;2024-03-25T14:32:13;8.75;;;4.03;;